Terminal Aerodrome Forecast
Issued by NWS Louisville, KY

Home | Current Version | Previous Version | Text Only | Print | Product List | Glossary On
Versions: 1 2 3 4 5 6 7 8 9 10 11 12 13 14 15 16
620
FTUS43 KLMK 271418 AAA
TAFBWG
TAF AMD
KBWG 271418Z 2714/2812 22006KT P6SM VCTS SCT025CB BKN035
     FM271900 24008KT P6SM BKN040
     FM280000 20005KT P6SM SCT030 BKN250 PROB30 2805/2810 VRB20G35KT
      3SM TSRA BKN025CB=

USA.gov is the U.S. government's official web portal to all federal, state and local government web resources and services.